Spirit Lake, South Dakota
Current Conditions -  °F | °C
As of 5:53 PM on Friday 31 Oct 2014 (Local Time) from KATY Reporting Station
Clear Clear  
Wind Chill: 28°   Ceiling: Unl
Heat Index: 35°   Visibility: 10mi
Dew Point: 19°   Wind: 9mph
Humidity: 52%   Direction: 170°S
Pressure: 30.41"   Gusts: NA
Location:  44.4924°N, 97.4007°W
Report Text: KATY 312253Z AUTO 17008KT 10SM CLR 02/M07 A3041 RMK AO2 SLP324 T00171072
Loading
Personal Weather Stations






























Interactive Weather Map
Tropical Storm Tracking
New forecast layout! Learn more

10-Day Weather Forecast

Advertisements
Track Severe Weather on mobile